createdAt,value
2024-03-09T00:00:59.026Z,158.72
2024-03-09T00:01:59.098Z,158.85
2024-03-09T00:02:59.097Z,158.18
2024-03-09T00:03:59.109Z,157.56
2024-03-09T00:04:59.360Z,155.01
2024-03-09T00:05:59.179Z,156.26
2024-03-09T00:06:59.252Z,157.05
2024-03-09T00:07:59.505Z,157.65
2024-03-09T00:08:59.275Z,159.19
2024-03-09T00:09:59.278Z,157.57
2024-03-09T00:10:59.415Z,155.59
2024-03-09T00:11:59.374Z,157.94
2024-03-09T00:12:59.354Z,158.80
2024-03-09T00:13:59.428Z,158.33
2024-03-09T00:14:59.418Z,157.53
2024-03-09T00:15:59.453Z,158.32
2024-03-09T00:16:59.573Z,157.02
2024-03-09T00:17:59.573Z,156.12
2024-03-09T00:18:59.573Z,156.38
2024-03-09T00:19:59.728Z,156.99
2024-03-09T00:20:59.618Z,155.38
2024-03-09T00:21:59.678Z,155.80
2024-03-09T00:22:59.842Z,158.36
2024-03-09T00:23:59.664Z,159.21
2024-03-09T00:24:59.722Z,161.53
2024-03-09T00:25:59.815Z,156.98
2024-03-09T00:26:59.822Z,158.67
2024-03-09T00:27:59.825Z,158.88
2024-03-09T00:28:59.863Z,156.74
2024-03-09T00:29:59.872Z,154.47
2024-03-09T00:30:59.924Z,158.46
2024-03-09T00:31:59.957Z,154.43
2024-03-09T00:33:00.015Z,155.61
2024-03-09T00:33:59.974Z,157.44
2024-03-09T00:35:00.060Z,159.63
2024-03-09T00:36:00.060Z,158.77
2024-03-09T00:37:00.144Z,158.12
2024-03-09T00:38:00.562Z,162.40
2024-03-09T00:39:00.165Z,160.95
2024-03-09T00:40:00.261Z,157.49
2024-03-09T00:41:00.288Z,162.84
2024-03-09T00:42:00.407Z,161.79
2024-03-09T00:43:00.498Z,158.75
2024-03-09T00:44:00.452Z,160.25
2024-03-09T00:45:00.475Z,160.16
2024-03-09T00:46:00.476Z,157.80
2024-03-09T00:47:00.563Z,158.30
2024-03-09T00:48:00.653Z,159.25
2024-03-09T00:49:00.630Z,158.68
2024-03-09T00:50:00.723Z,155.75
2024-03-09T00:51:00.701Z,153.67
2024-03-09T00:52:00.796Z,159.13
2024-03-09T00:53:00.912Z,160.65
2024-03-09T00:54:00.884Z,158.09
2024-03-09T00:55:00.941Z,156.86
2024-03-09T00:56:01.073Z,154.30
2024-03-09T00:57:01.012Z,159.13
2024-03-09T00:58:01.056Z,152.03
2024-03-09T00:59:03.042Z,154.54
2024-03-09T01:00:01.189Z,156.16
2024-03-09T01:01:01.229Z,158.36
2024-03-09T01:02:01.349Z,155.16
2024-03-09T01:03:01.352Z,154.99
2024-03-09T01:04:01.417Z,155.87
2024-03-09T01:05:01.530Z,152.86
2024-03-09T01:06:01.529Z,157.03
2024-03-09T01:07:01.581Z,156.50
2024-03-09T01:08:01.631Z,159.70
2024-03-09T01:09:01.768Z,159.02
2024-03-09T01:10:01.707Z,155.21
2024-03-09T01:11:01.915Z,152.77
2024-03-09T01:12:01.930Z,153.43
2024-03-09T01:13:01.836Z,155.02
2024-03-09T01:14:02.159Z,153.25
2024-03-09T01:15:01.942Z,158.89
2024-03-09T01:16:02.013Z,159.57
2024-03-09T01:17:02.122Z,161.46
2024-03-09T01:18:02.148Z,156.10
2024-03-09T01:19:02.201Z,154.25
2024-03-09T01:20:02.384Z,153.68
2024-03-09T01:21:02.265Z,156.33
2024-03-09T01:22:02.303Z,155.16
2024-03-09T01:23:02.440Z,156.55
2024-03-09T01:24:02.411Z,153.14
2024-03-09T01:25:02.493Z,155.33
2024-03-09T01:26:02.601Z,155.44
2024-03-09T01:27:02.571Z,153.36
2024-03-09T01:28:02.593Z,157.49
2024-03-09T01:29:02.854Z,162.88
2024-03-09T01:30:03.057Z,160.25
2024-03-09T01:31:02.793Z,159.73
2024-03-09T01:32:02.906Z,159.98
2024-03-09T01:33:02.854Z,159.47
2024-03-09T01:34:02.883Z,160.55
2024-03-09T01:35:03.053Z,160.43
2024-03-09T01:36:02.964Z,161.02
2024-03-09T01:37:03.027Z,158.46
2024-03-09T01:38:03.087Z,159.68
2024-03-09T01:39:03.132Z,160.00
2024-03-09T01:40:03.207Z,160.12
2024-03-09T01:41:03.315Z,161.07
2024-03-09T01:42:03.305Z,158.48
2024-03-09T01:43:03.312Z,156.82
2024-03-09T01:44:03.401Z,156.09
2024-03-09T01:45:03.434Z,158.41
2024-03-09T01:46:03.476Z,156.29
2024-03-09T01:47:03.645Z,159.26
2024-03-09T01:48:03.640Z,162.44
2024-03-09T01:49:03.619Z,163.13
2024-03-09T01:50:03.816Z,161.94
2024-03-09T01:51:03.746Z,165.62
2024-03-09T01:52:03.790Z,162.37
2024-03-09T01:53:03.856Z,159.75
2024-03-09T01:54:03.900Z,160.28
2024-03-09T01:55:03.955Z,160.71
2024-03-09T01:56:04.087Z,155.84
2024-03-09T01:57:04.097Z,159.43
2024-03-09T01:58:04.128Z,162.32
2024-03-09T01:59:04.239Z,161.62
2024-03-09T02:00:04.353Z,163.75
2024-03-09T02:01:04.349Z,161.02
2024-03-09T02:02:04.429Z,158.62
2024-03-09T02:03:04.441Z,159.59
2024-03-09T02:04:04.526Z,161.37
2024-03-09T02:05:04.890Z,159.25
2024-03-09T02:06:04.616Z,158.45
2024-03-09T02:07:04.695Z,162.22
2024-03-09T02:08:04.829Z,160.27
2024-03-09T02:09:04.813Z,159.68
2024-03-09T02:10:04.922Z,159.61
2024-03-09T02:11:05.050Z,158.54
2024-03-09T02:12:05.044Z,158.38
2024-03-09T02:13:05.094Z,161.79
2024-03-09T02:14:05.128Z,164.54
2024-03-09T02:15:05.210Z,164.44
2024-03-09T02:16:05.277Z,164.78
2024-03-09T02:17:05.396Z,164.28
2024-03-09T02:18:05.415Z,165.61
2024-03-09T02:19:05.448Z,166.83
2024-03-09T02:20:05.499Z,162.98
2024-03-09T02:21:05.551Z,163.07
2024-03-09T02:22:05.618Z,163.02
2024-03-09T02:23:05.761Z,161.40
2024-03-09T02:24:05.724Z,162.42
2024-03-09T02:25:05.775Z,163.45
2024-03-09T02:26:05.936Z,162.96
2024-03-09T02:27:05.922Z,163.57
2024-03-09T02:28:05.974Z,164.49
2024-03-09T02:29:06.114Z,164.56
2024-03-09T02:30:06.086Z,163.79
2024-03-09T02:31:06.163Z,165.25
2024-03-09T02:33:06.326Z,161.15
2024-03-09T02:34:06.366Z,163.35
2024-03-09T02:35:06.418Z,163.24
2024-03-09T02:36:06.425Z,163.82
2024-03-09T02:37:06.498Z,163.05
2024-03-09T02:38:06.589Z,164.93
2024-03-09T02:39:06.667Z,163.78
2024-03-09T02:40:06.694Z,165.78
2024-03-09T02:41:06.780Z,163.09
2024-03-09T02:42:06.805Z,163.43
2024-03-09T02:43:06.890Z,161.89
2024-03-09T02:44:06.958Z,158.03
2024-03-09T02:45:07.026Z,158.05
2024-03-09T02:46:07.108Z,158.34
2024-03-09T02:47:07.215Z,160.98
2024-03-09T02:48:07.210Z,162.25
2024-03-09T02:49:07.259Z,158.32
2024-03-09T02:50:07.502Z,161.23
2024-03-09T02:51:07.367Z,161.77
2024-03-09T02:52:07.427Z,158.40
2024-03-09T02:53:07.585Z,160.21
2024-03-09T02:54:07.419Z,164.18
2024-03-09T02:55:07.490Z,163.77
2024-03-09T02:56:07.517Z,162.18
2024-03-09T02:57:07.462Z,163.98
2024-03-09T02:58:07.415Z,164.38
2024-03-09T02:59:07.507Z,164.13
2024-03-09T03:00:07.456Z,166.30
2024-03-09T03:01:07.529Z,162.96
2024-03-09T03:02:07.560Z,162.46
2024-03-09T03:03:07.460Z,163.41
2024-03-09T03:04:07.429Z,163.87
2024-03-09T03:05:07.550Z,162.00
2024-03-09T03:06:07.453Z,162.10
2024-03-09T03:07:07.446Z,162.39
2024-03-09T03:08:07.556Z,162.48
2024-03-09T03:09:07.478Z,163.95
2024-03-09T03:10:07.489Z,159.01
2024-03-09T03:11:07.583Z,161.07
2024-03-09T03:12:07.471Z,163.19
2024-03-09T03:13:07.536Z,161.29
2024-03-09T03:14:07.620Z,158.79
2024-03-09T03:15:07.514Z,163.83
2024-03-09T03:16:07.473Z,163.94
2024-03-09T03:17:07.595Z,162.94
2024-03-09T03:18:07.479Z,162.29
2024-03-09T03:19:07.950Z,164.52
2024-03-09T03:20:07.537Z,162.47
2024-03-09T03:21:07.488Z,163.98
2024-03-09T03:22:07.516Z,162.41
2024-03-09T03:23:07.568Z,164.12
2024-03-09T03:24:07.467Z,164.24
2024-03-09T03:25:07.459Z,161.36
2024-03-09T03:26:10.442Z,165.27
2024-03-09T03:27:07.506Z,165.28
2024-03-09T03:28:07.568Z,165.22
2024-03-09T03:29:07.587Z,163.54
2024-03-09T03:30:07.479Z,164.17
2024-03-09T03:31:07.514Z,165.59
2024-03-09T03:32:07.528Z,165.12
2024-03-09T03:33:07.780Z,164.87
2024-03-09T03:34:07.526Z,161.39
2024-03-09T03:35:07.544Z,161.61
2024-03-09T03:36:07.535Z,161.76
2024-03-09T03:37:07.563Z,163.77
2024-03-09T03:38:07.938Z,164.06
2024-03-09T03:39:07.512Z,165.05
2024-03-09T03:40:07.512Z,164.03
2024-03-09T03:41:07.743Z,162.55
2024-03-09T03:42:07.539Z,164.86
2024-03-09T03:43:07.523Z,163.91
2024-03-09T03:44:07.603Z,163.53
2024-03-09T03:45:07.725Z,162.60
2024-03-09T03:46:07.672Z,163.86
2024-03-09T03:47:07.836Z,162.78
2024-03-09T03:48:07.897Z,165.00
2024-03-09T03:49:07.927Z,165.26
2024-03-09T03:50:07.980Z,162.34
2024-03-09T03:51:07.998Z,160.68
2024-03-09T03:52:08.075Z,161.16
2024-03-09T03:53:08.335Z,163.21
2024-03-09T03:54:08.224Z,161.45
2024-03-09T03:55:08.302Z,161.11
2024-03-09T03:56:08.428Z,163.70
2024-03-09T03:57:08.399Z,163.39
2024-03-09T03:58:08.530Z,161.75
2024-03-09T03:59:08.660Z,160.91
2024-03-09T04:00:08.618Z,162.13
2024-03-09T04:01:08.786Z,162.48
2024-03-09T04:02:08.902Z,160.18
2024-03-09T04:03:08.842Z,161.68
2024-03-09T04:04:08.886Z,161.30
2024-03-09T04:05:09.065Z,160.31
2024-03-09T04:06:09.049Z,162.45
2024-03-09T04:07:09.099Z,162.52
2024-03-09T04:08:09.225Z,160.36
2024-03-09T04:09:09.229Z,162.83
2024-03-09T04:10:09.306Z,160.67
2024-03-09T04:11:09.564Z,160.28
2024-03-09T04:12:09.459Z,158.63
2024-03-09T04:13:09.450Z,161.30
2024-03-09T04:14:09.557Z,161.82
2024-03-09T04:15:09.584Z,161.02
2024-03-09T04:16:09.621Z,161.36
2024-03-09T04:17:09.767Z,161.82
2024-03-09T04:18:09.788Z,160.70
2024-03-09T04:19:09.800Z,158.24
2024-03-09T04:20:09.952Z,162.49
2024-03-09T04:21:09.970Z,161.71
2024-03-09T04:22:09.950Z,159.68
2024-03-09T04:23:09.996Z,160.29
2024-03-09T04:24:10.025Z,161.05
2024-03-09T04:25:10.221Z,160.21
2024-03-09T04:26:10.176Z,161.28
2024-03-09T04:27:10.251Z,160.84
2024-03-09T04:28:10.216Z,160.61
2024-03-09T04:29:10.336Z,160.89
2024-03-09T04:30:10.374Z,161.59
2024-03-09T04:31:17.588Z,50.00
2024-03-09T04:32:17.669Z,50.00
2024-03-09T04:33:17.594Z,50.00
2024-03-09T04:34:17.603Z,50.00
2024-03-09T04:35:17.631Z,50.00
2024-03-09T04:36:17.718Z,52.90
2024-03-09T04:37:17.613Z,52.10
2024-03-09T04:38:17.896Z,52.70
2024-03-09T04:39:17.596Z,51.07
2024-03-09T04:40:17.655Z,54.20
2024-03-09T04:41:17.647Z,52.65
2024-03-09T04:42:17.619Z,52.46
2024-03-09T04:43:17.597Z,54.55
2024-03-09T04:44:22.410Z,53.70
2024-03-09T04:45:18.605Z,53.80
2024-03-09T04:46:17.615Z,53.98
2024-03-09T04:47:17.607Z,54.09
2024-03-09T04:48:17.638Z,54.81
2024-03-09T04:49:17.638Z,53.56
2024-03-09T04:50:17.660Z,52.73
2024-03-09T04:51:17.624Z,53.22
2024-03-09T04:52:17.645Z,53.66
2024-03-09T04:53:18.270Z,54.97
2024-03-09T04:54:17.653Z,52.90
2024-03-09T04:55:17.613Z,53.63
2024-03-09T04:56:17.765Z,51.59
2024-03-09T04:57:17.724Z,51.01
2024-03-09T04:58:17.761Z,52.92
2024-03-09T04:59:17.902Z,52.44
2024-03-09T05:00:17.890Z,54.03
2024-03-09T05:01:17.967Z,53.99
2024-03-09T05:02:18.023Z,50.36
2024-03-09T05:03:18.052Z,54.16
2024-03-09T05:04:18.111Z,53.59
2024-03-09T05:05:18.145Z,53.34
2024-03-09T05:06:18.241Z,54.25
2024-03-09T05:07:18.260Z,51.08
2024-03-09T05:08:18.359Z,54.02
2024-03-09T05:09:18.413Z,54.16
2024-03-09T05:10:18.456Z,54.54
2024-03-09T05:11:18.523Z,55.62
2024-03-09T05:12:18.518Z,53.08
2024-03-09T05:13:18.564Z,53.98
2024-03-09T05:14:18.648Z,55.45
2024-03-09T05:15:18.697Z,54.13
2024-03-09T05:16:18.750Z,55.85
2024-03-09T05:17:18.828Z,53.50
2024-03-09T05:18:18.944Z,53.45
2024-03-09T05:19:18.918Z,53.76
2024-03-09T05:20:18.990Z,51.48
2024-03-09T05:21:19.044Z,53.68
2024-03-09T05:22:19.100Z,53.14
2024-03-09T05:23:19.210Z,51.73
2024-03-09T05:24:19.232Z,55.91
2024-03-09T05:25:19.258Z,53.55
2024-03-09T05:26:19.348Z,53.72
2024-03-09T05:27:19.381Z,54.42
2024-03-09T05:28:19.458Z,55.05
2024-03-09T05:29:19.501Z,56.62
2024-03-09T05:30:19.627Z,56.84
2024-03-09T05:31:19.616Z,54.26
2024-03-09T05:32:19.666Z,54.61
2024-03-09T05:33:19.798Z,56.03
2024-03-09T05:34:19.800Z,55.34
2024-03-09T05:35:19.848Z,56.66
2024-03-09T05:36:19.915Z,55.28
2024-03-09T05:37:19.963Z,54.83
2024-03-09T05:38:20.056Z,56.14
2024-03-09T05:39:20.052Z,54.67
2024-03-09T05:40:20.161Z,58.37
2024-03-09T05:41:20.185Z,56.72
2024-03-09T05:42:20.210Z,57.45
2024-03-09T05:43:20.277Z,56.48
2024-03-09T05:44:20.325Z,55.15
2024-03-09T05:45:20.379Z,56.04
2024-03-09T05:46:20.418Z,54.67
2024-03-09T05:47:20.501Z,54.83
2024-03-09T05:48:20.641Z,56.70
2024-03-09T05:49:20.614Z,54.82
2024-03-09T05:50:20.656Z,54.97
2024-03-09T05:51:20.749Z,55.07
2024-03-09T05:52:20.788Z,55.01
2024-03-09T05:53:20.921Z,55.70
2024-03-09T05:54:20.884Z,56.19
2024-03-09T05:55:20.979Z,55.10
2024-03-09T05:56:21.081Z,56.97
2024-03-09T05:57:21.041Z,54.68
2024-03-09T05:58:21.141Z,55.81
2024-03-09T05:59:21.163Z,55.10
2024-03-09T06:00:21.266Z,57.42
2024-03-09T06:01:21.328Z,57.25
2024-03-09T06:02:21.416Z,56.82
2024-03-09T06:03:21.420Z,55.86
2024-03-09T06:04:21.461Z,57.72
2024-03-09T06:05:21.531Z,57.57
2024-03-09T06:06:21.597Z,57.60
2024-03-09T06:07:21.658Z,56.30
2024-03-09T06:08:21.738Z,56.43
2024-03-09T06:09:21.776Z,55.41
2024-03-09T06:10:21.823Z,58.24
2024-03-09T06:11:21.931Z,57.12
2024-03-09T06:12:22.086Z,55.88
2024-03-09T06:13:21.980Z,54.86
2024-03-09T06:14:22.014Z,55.30
2024-03-09T06:15:22.089Z,56.60
2024-03-09T06:16:22.124Z,55.40
2024-03-09T06:17:22.155Z,57.95
2024-03-09T06:18:22.222Z,57.05
2024-03-09T06:19:22.307Z,57.08
2024-03-09T06:20:22.348Z,56.15
2024-03-09T06:21:22.436Z,56.49
2024-03-09T06:22:22.474Z,55.60
2024-03-09T06:23:22.521Z,58.45
2024-03-09T06:24:22.604Z,52.36
2024-03-09T06:25:22.642Z,56.32
2024-03-09T06:26:22.674Z,55.08
2024-03-09T06:27:22.701Z,57.42
2024-03-09T06:28:22.818Z,58.14
2024-03-09T06:29:22.951Z,57.82
2024-03-09T06:30:25.619Z,57.28
2024-03-09T06:31:22.880Z,57.35
2024-03-09T06:32:22.872Z,56.77
2024-03-09T06:33:22.925Z,57.98
2024-03-09T06:34:22.912Z,57.96
2024-03-09T06:35:22.897Z,60.01
2024-03-09T06:36:22.914Z,58.40
2024-03-09T06:37:22.901Z,57.66
2024-03-09T06:38:22.917Z,56.10
2024-03-09T06:39:22.938Z,57.60
2024-03-09T06:40:22.915Z,56.21
2024-03-09T06:41:24.737Z,56.21
2024-03-09T06:42:22.913Z,60.35
2024-03-09T06:43:22.906Z,58.44
2024-03-09T06:44:22.976Z,56.83
2024-03-09T06:45:22.931Z,58.50
2024-03-09T06:46:22.899Z,56.20
2024-03-09T06:47:22.944Z,58.02
2024-03-09T06:48:22.918Z,55.35
2024-03-09T06:49:22.955Z,58.45
2024-03-09T06:50:23.072Z,57.05
2024-03-09T06:51:22.923Z,56.77
2024-03-09T06:52:22.925Z,58.15
2024-03-09T06:53:22.992Z,55.46
2024-03-09T06:54:22.954Z,57.26
2024-03-09T06:55:23.013Z,55.14
2024-03-09T06:56:23.028Z,54.89
2024-03-09T06:57:22.928Z,55.47
2024-03-09T06:58:22.957Z,53.59
2024-03-09T06:59:22.922Z,54.04
2024-03-09T07:00:22.987Z,57.51
2024-03-09T07:01:23.000Z,55.38
2024-03-09T07:02:23.006Z,56.79
2024-03-09T07:03:22.958Z,54.85
2024-03-09T07:04:22.924Z,56.60
2024-03-09T07:05:23.034Z,54.87
2024-03-09T07:06:22.972Z,57.90
2024-03-09T07:07:22.943Z,55.60
2024-03-09T07:08:23.081Z,55.12
2024-03-09T07:09:22.942Z,57.27
2024-03-09T07:10:22.941Z,56.25
2024-03-09T07:11:23.018Z,57.41
2024-03-09T07:12:22.968Z,56.20
2024-03-09T07:13:22.965Z,56.85
2024-03-09T07:14:22.957Z,55.03
2024-03-09T07:15:22.965Z,55.72
2024-03-09T07:16:22.998Z,57.52
2024-03-09T07:17:22.955Z,57.26
2024-03-09T07:18:23.018Z,56.68
2024-03-09T07:19:22.970Z,59.27
2024-03-09T07:20:23.070Z,57.91
2024-03-09T07:21:22.978Z,56.34
2024-03-09T07:22:23.036Z,58.88
2024-03-09T07:23:23.064Z,58.65
2024-03-09T07:24:22.993Z,59.36
2024-03-09T07:25:22.992Z,59.57
2024-03-09T07:26:23.048Z,59.91
2024-03-09T07:27:22.981Z,60.41
2024-03-09T07:28:23.019Z,58.29
2024-03-09T07:29:23.046Z,59.49
2024-03-09T07:30:23.040Z,58.43
2024-03-09T07:31:23.009Z,59.41
2024-03-09T07:32:23.138Z,60.71
2024-03-09T07:33:23.067Z,58.46
2024-03-09T07:34:22.992Z,55.40
2024-03-09T07:35:23.018Z,56.83
2024-03-09T07:36:23.003Z,54.26
2024-03-09T07:37:25.202Z,50.22
2024-03-09T07:38:23.139Z,50.61
2024-03-09T07:39:23.132Z,53.11
2024-03-09T07:40:23.210Z,53.78
2024-03-09T07:41:23.177Z,53.98
2024-03-09T07:42:23.179Z,55.83
2024-03-09T07:43:23.176Z,56.09
2024-03-09T07:44:23.259Z,60.57
2024-03-09T07:45:23.241Z,58.88
2024-03-09T07:46:23.274Z,62.77
2024-03-09T07:47:23.392Z,63.04
2024-03-09T07:48:23.438Z,66.95
2024-03-09T07:49:23.513Z,67.40
2024-03-09T07:50:23.887Z,68.94
2024-03-09T07:51:23.638Z,70.83
2024-03-09T07:52:23.628Z,74.75
2024-03-09T07:53:23.654Z,80.44
2024-03-09T07:54:23.739Z,79.11
2024-03-09T07:55:23.792Z,79.12
2024-03-09T07:56:23.937Z,81.66
2024-03-09T07:57:23.854Z,79.16
2024-03-09T07:58:26.785Z,76.40
2024-03-09T07:59:23.900Z,76.68
2024-03-09T08:00:23.895Z,72.38
2024-03-09T08:01:23.959Z,72.01
2024-03-09T08:02:23.973Z,68.96
2024-03-09T08:03:24.166Z,68.30
2024-03-09T08:04:23.967Z,65.59
2024-03-09T08:05:23.923Z,64.80
2024-03-09T08:06:23.918Z,60.82
2024-03-09T08:07:23.935Z,60.41
2024-03-09T08:08:24.002Z,64.32
2024-03-09T08:09:23.948Z,59.22
2024-03-09T08:10:23.948Z,59.78
2024-03-09T08:11:24.106Z,58.88
2024-03-09T08:12:23.957Z,56.99
2024-03-09T08:13:23.929Z,57.48
2024-03-09T08:14:23.952Z,57.54
2024-03-09T08:15:23.964Z,53.90
2024-03-09T08:16:23.944Z,57.86
2024-03-09T08:17:23.945Z,52.63
2024-03-09T08:18:24.300Z,52.98
2024-03-09T08:19:23.980Z,51.84
2024-03-09T08:20:24.809Z,57.37
2024-03-09T08:21:23.983Z,54.39
2024-03-09T08:22:23.946Z,50.45
2024-03-09T08:23:23.991Z,53.01
2024-03-09T08:24:23.965Z,51.80
2024-03-09T08:25:24.011Z,49.96
2024-03-09T08:26:24.069Z,51.89
2024-03-09T08:27:23.967Z,51.37
2024-03-09T08:28:24.054Z,53.30
2024-03-09T08:29:24.002Z,55.35
2024-03-09T08:30:23.957Z,50.87
2024-03-09T08:31:23.986Z,51.76
2024-03-09T08:32:23.947Z,52.84
2024-03-09T08:33:24.035Z,51.18
2024-03-09T08:34:23.958Z,52.84
2024-03-09T08:35:24.026Z,53.35
2024-03-09T08:36:23.983Z,57.07
2024-03-09T08:37:23.978Z,58.38
2024-03-09T08:38:24.013Z,58.26
2024-03-09T08:39:24.005Z,60.33
2024-03-09T08:40:24.042Z,56.49
2024-03-09T08:41:24.135Z,51.12
2024-03-09T08:42:24.180Z,55.77
2024-03-09T08:43:24.214Z,56.85
2024-03-09T08:44:24.254Z,54.77
2024-03-09T08:45:24.358Z,54.58
2024-03-09T08:46:24.345Z,55.62
2024-03-09T08:47:24.424Z,50.82
2024-03-09T08:48:24.449Z,55.77
2024-03-09T08:49:24.511Z,54.43
2024-03-09T08:50:24.674Z,51.48
2024-03-09T08:51:24.643Z,51.02
2024-03-09T08:52:24.941Z,55.49
2024-03-09T08:53:24.763Z,54.71
2024-03-09T08:54:24.708Z,54.98
2024-03-09T08:55:25.005Z,54.03
2024-03-09T08:56:24.835Z,56.12
2024-03-09T08:57:24.868Z,55.01
2024-03-09T08:58:24.945Z,53.64
2024-03-09T08:59:25.002Z,55.26
2024-03-09T09:00:25.000Z,50.00
2024-03-09T09:01:25.139Z,52.09
2024-03-09T09:02:25.145Z,53.09
2024-03-09T09:03:25.141Z,55.75
2024-03-09T09:04:25.202Z,50.00
2024-03-09T09:05:25.217Z,56.26
2024-03-09T09:06:25.261Z,52.75
2024-03-09T09:07:25.289Z,53.65
2024-03-09T09:08:25.388Z,59.65
2024-03-09T09:09:25.340Z,50.88
2024-03-09T09:10:25.392Z,57.88
2024-03-09T09:11:25.459Z,51.29
2024-03-09T09:12:25.461Z,53.14
2024-03-09T09:13:25.463Z,52.23
2024-03-09T09:14:25.453Z,55.13
2024-03-09T09:15:25.475Z,57.37
2024-03-09T09:16:25.627Z,55.40
2024-03-09T09:17:25.557Z,59.10
2024-03-09T09:18:25.528Z,54.82
2024-03-09T09:19:25.548Z,53.59
2024-03-09T09:20:25.985Z,56.42
2024-03-09T09:21:25.571Z,52.62
2024-03-09T09:22:25.569Z,54.34
2024-03-09T09:23:25.607Z,55.98
2024-03-09T09:24:25.594Z,54.60
2024-03-09T09:25:29.417Z,53.73
2024-03-09T09:26:26.724Z,53.79
2024-03-09T09:27:25.605Z,54.20
2024-03-09T09:28:25.597Z,53.88
2024-03-09T09:29:25.598Z,52.11
2024-03-09T09:30:25.603Z,54.74
2024-03-09T09:31:25.575Z,53.84
2024-03-09T09:32:25.713Z,54.39
2024-03-09T09:33:25.648Z,55.15
2024-03-09T09:34:25.620Z,54.49
2024-03-09T09:35:25.670Z,49.41
2024-03-09T09:36:25.580Z,55.62
2024-03-09T09:37:25.581Z,55.16
2024-03-09T09:38:25.639Z,51.38
2024-03-09T09:39:25.663Z,53.04
2024-03-09T09:40:25.653Z,53.28
2024-03-09T09:41:25.608Z,54.24
2024-03-09T09:42:25.596Z,55.32
2024-03-09T09:43:25.663Z,50.39
2024-03-09T09:44:25.620Z,53.10
2024-03-09T09:45:25.678Z,52.39
2024-03-09T09:46:25.608Z,54.22
2024-03-09T09:47:25.652Z,53.41
2024-03-09T09:48:25.629Z,51.39
2024-03-09T09:49:25.616Z,51.70
2024-03-09T09:50:25.741Z,53.15
2024-03-09T09:51:25.680Z,54.19
2024-03-09T09:52:25.696Z,52.92
2024-03-09T09:53:25.751Z,54.27
2024-03-09T09:54:25.799Z,51.71
2024-03-09T09:55:25.935Z,53.23
2024-03-09T09:56:25.956Z,54.83
2024-03-09T09:57:26.043Z,53.75
2024-03-09T09:58:26.061Z,50.03
2024-03-09T09:59:26.187Z,52.85
2024-03-09T10:00:26.173Z,54.19
2024-03-09T10:01:26.262Z,50.74
2024-03-09T10:02:26.473Z,53.75
2024-03-09T10:03:26.387Z,53.21
2024-03-09T10:04:26.460Z,54.44
2024-03-09T10:05:26.628Z,52.40
2024-03-09T10:06:26.594Z,53.18
2024-03-09T10:07:26.643Z,53.13
2024-03-09T10:08:26.721Z,54.83
2024-03-09T10:09:26.825Z,53.66
2024-03-09T10:10:26.811Z,56.86
2024-03-09T10:11:26.969Z,54.87
2024-03-09T10:12:26.990Z,52.92
2024-03-09T10:13:27.040Z,53.91
2024-03-09T10:14:27.146Z,52.26
2024-03-09T10:15:27.200Z,53.07
2024-03-09T10:16:27.289Z,53.70
2024-03-09T10:17:27.388Z,53.50
2024-03-09T10:18:27.403Z,53.55
2024-03-09T10:19:27.494Z,53.36
2024-03-09T10:20:27.546Z,53.39
2024-03-09T10:21:27.631Z,55.68
2024-03-09T10:22:27.700Z,53.86
2024-03-09T10:23:27.861Z,53.16
2024-03-09T10:24:27.823Z,53.47
2024-03-09T10:25:27.927Z,53.36
2024-03-09T10:26:27.963Z,51.77
2024-03-09T10:27:29.712Z,50.32
2024-03-09T10:28:28.140Z,52.73
2024-03-09T10:29:28.178Z,54.79
2024-03-09T10:30:28.306Z,53.70
2024-03-09T10:31:28.302Z,52.43
2024-03-09T10:32:28.400Z,56.20
2024-03-09T10:33:28.501Z,53.22
2024-03-09T10:34:28.519Z,53.82
2024-03-09T10:35:28.786Z,52.25
2024-03-09T10:36:28.731Z,55.20
2024-03-09T10:37:28.739Z,52.62
2024-03-09T10:38:28.774Z,55.68
2024-03-09T10:39:28.825Z,53.44
2024-03-09T10:40:28.925Z,54.26
2024-03-09T10:41:28.983Z,53.27
2024-03-09T10:42:29.025Z,51.05
2024-03-09T10:43:29.092Z,54.07
2024-03-09T10:44:29.174Z,52.55
2024-03-09T10:45:29.259Z,50.64
2024-03-09T10:46:29.277Z,51.27
2024-03-09T10:47:29.332Z,52.92
2024-03-09T10:48:29.368Z,52.18
2024-03-09T10:49:29.426Z,53.12
2024-03-09T10:50:29.501Z,53.94
2024-03-09T10:51:29.532Z,53.75
2024-03-09T10:52:29.620Z,55.09
2024-03-09T10:53:29.634Z,54.65
2024-03-09T10:54:29.719Z,53.57
2024-03-09T10:55:29.757Z,52.08
2024-03-09T10:56:29.838Z,56.08
2024-03-09T10:57:29.889Z,55.14
2024-03-09T10:58:29.937Z,55.63
2024-03-09T10:59:30.004Z,56.12
2024-03-09T11:00:30.100Z,57.33
2024-03-09T11:01:30.167Z,55.75
2024-03-09T11:02:30.124Z,54.87
2024-03-09T11:03:30.155Z,56.60
2024-03-09T11:04:30.230Z,54.56
2024-03-09T11:05:30.277Z,55.89
2024-03-09T11:06:30.335Z,56.80
2024-03-09T11:07:30.388Z,56.50
2024-03-09T11:08:30.423Z,57.15
2024-03-09T11:09:30.678Z,56.58
2024-03-09T11:10:30.540Z,56.42
2024-03-09T11:11:30.682Z,57.87
2024-03-09T11:12:30.628Z,57.14
2024-03-09T11:13:30.686Z,56.11
2024-03-09T11:14:30.735Z,58.06
2024-03-09T11:15:30.789Z,58.12
2024-03-09T11:16:30.900Z,58.41
2024-03-09T11:17:30.926Z,56.36
2024-03-09T11:18:30.948Z,57.98
2024-03-09T11:19:30.994Z,58.14
2024-03-09T11:20:31.031Z,56.28
2024-03-09T11:21:31.448Z,58.31
2024-03-09T11:22:31.049Z,58.32
2024-03-09T11:23:31.048Z,58.29
2024-03-09T11:24:31.230Z,60.59
2024-03-09T11:25:31.039Z,59.17
2024-03-09T11:26:31.047Z,57.38
2024-03-09T11:27:31.024Z,55.36
2024-03-09T11:28:31.078Z,58.02
2024-03-09T11:29:31.412Z,56.42
2024-03-09T11:30:31.092Z,59.23
2024-03-09T11:31:31.077Z,55.81
2024-03-09T11:32:31.160Z,56.50
2024-03-09T11:33:31.053Z,55.69
2024-03-09T11:34:31.040Z,57.33
2024-03-09T11:35:31.066Z,55.65
2024-03-09T11:36:31.057Z,55.36
2024-03-09T11:37:31.086Z,54.55
2024-03-09T11:38:31.110Z,55.08
2024-03-09T11:39:31.357Z,57.23
2024-03-09T11:40:31.073Z,56.29
2024-03-09T11:41:31.096Z,55.91
2024-03-09T11:42:31.070Z,54.15
2024-03-09T11:43:31.072Z,54.98
2024-03-09T11:44:31.069Z,55.20
2024-03-09T11:45:31.088Z,57.22
2024-03-09T11:46:31.099Z,57.52
2024-03-09T11:47:31.143Z,54.05
2024-03-09T11:48:31.193Z,55.39
2024-03-09T11:49:31.119Z,56.38
2024-03-09T11:50:31.153Z,56.48
2024-03-09T11:51:31.112Z,56.98
2024-03-09T11:52:31.112Z,55.76
2024-03-09T11:53:31.130Z,55.16
2024-03-09T11:54:31.136Z,56.21
2024-03-09T11:55:31.087Z,55.61
2024-03-09T11:56:31.089Z,56.28
2024-03-09T11:57:31.110Z,57.44
2024-03-09T11:58:31.138Z,54.87
2024-03-09T11:59:31.204Z,56.24
2024-03-09T12:00:31.130Z,56.67
2024-03-09T12:01:31.128Z,54.56
2024-03-09T12:02:31.212Z,56.96
2024-03-09T12:03:31.138Z,56.53
2024-03-09T12:04:31.157Z,54.63
2024-03-09T12:05:31.119Z,55.19
2024-03-09T12:06:31.120Z,56.68
2024-03-09T12:07:31.197Z,56.27
2024-03-09T12:08:31.173Z,55.42
2024-03-09T12:09:31.246Z,55.25
2024-03-09T12:10:31.255Z,54.97
2024-03-09T12:11:31.369Z,59.07
2024-03-09T12:12:31.265Z,56.06
2024-03-09T12:13:31.311Z,56.97
2024-03-09T12:14:31.341Z,56.25
2024-03-09T12:15:31.336Z,52.93
2024-03-09T12:16:31.363Z,55.18
2024-03-09T12:17:31.405Z,55.33
2024-03-09T12:18:31.385Z,55.94
2024-03-09T12:19:31.414Z,54.15
2024-03-09T12:20:33.030Z,54.21
2024-03-09T12:21:31.432Z,55.37
2024-03-09T12:22:31.453Z,56.32
2024-03-09T12:23:31.408Z,55.38
2024-03-09T12:24:31.440Z,55.98
2024-03-09T12:25:31.419Z,54.90
2024-03-09T12:26:34.015Z,54.95
2024-03-09T12:27:31.437Z,55.10
2024-03-09T12:28:31.448Z,55.42
2024-03-09T12:29:31.434Z,56.91
2024-03-09T12:30:31.444Z,56.00
2024-03-09T12:31:31.459Z,57.82
2024-03-09T12:32:34.689Z,55.46
2024-03-09T12:33:31.423Z,55.62
2024-03-09T12:34:31.485Z,55.78
2024-03-09T12:35:31.466Z,55.54
2024-03-09T12:36:31.471Z,55.98
2024-03-09T12:37:31.472Z,58.62
2024-03-09T12:38:33.991Z,59.34
2024-03-09T12:39:31.443Z,59.00
2024-03-09T12:40:31.464Z,58.93
2024-03-09T12:41:31.474Z,59.52
2024-03-09T12:42:31.462Z,56.84
2024-03-09T12:43:31.454Z,57.11
2024-03-09T12:44:32.155Z,57.45
2024-03-09T12:45:31.468Z,56.22
2024-03-09T12:46:31.466Z,57.82